Hardwick, Vermont
Current Conditions -  °F | °C
As of 12:54 PM on Monday 22 Dec 2014 (Local Time) from KMVL Reporting Station
Overcast Overcast  
Wind Chill: 26°   Ceiling: 3400
Heat Index: 31°   Visibility: 10mi
Dew Point: 24°   Wind: 5mph
Humidity: 76%   Direction: 190°S
Pressure: 30.33"   Gusts: NA
Location:  44.5°N, 72.37°W
Report Text: KMVL 221754Z AUTO 19004KT 10SM OVC034 M01/M04 A3033 RMK AO2 SLP282 T10061044 11006 21050 56019 TSNO
Loading
Personal Weather Stations






























Interactive Weather Map New forecast layout! Learn more

10-Day Weather Forecast

Advertisements
Track Severe Weather on mobile